CheckWX is a tool to help pilots better visualize weather data.  It is not intended as a substitute for an official pre-flight weather briefing.

00:52:32 UTC

GQPA METAR
Atar International Airport
Atar, Mauritania
Current

10 hours ago

GQPA 231500Z VRB06KT 7000 NSC 28/// Q1012
Observed
Mar-23 @ 15:00 UTC
Wind
  • Variable at 6 KTS
Visibility
7,001 meters
Flight Rules
MVFR
Cloud Levels
  • Clear skies
Altimeter
29.88" Hg
Pressure
1011.92 hPa
Previous

13 hours ago

GQPA 231200Z 18014KT CAVOK 23/12 Q1014
Observed
Mar-23 @ 12:00 UTC
Wind
  • 180° at 14 KTS
Visibility
10,000+ meters
Flight Rules
VFR
Cloud Levels
  • Clear skies
Temperature
23°C / 73°F
Dewpoint
12°C / 54°F
Humidity
50%
Altimeter
29.94" Hg
Pressure
1013.92 hPa